Time;durP1;ratioP1;P1;durP2;ratioP2;P2;SDS_P1;SDS_P2;PMS_P1;PMS_P2;Temp;Humidity;BMP_temperature;BMP_pressure;BME280_temperature;BME280_humidity;BME280_pressure;Samples;Min_cycle;Max_cycle;Signal;HPM_P1;HPM_P2
2022/12/07 00:01:08;;;;;;;0.40;0.40;;;6.20;99.90;;;;;;5026037;28;20214;-83
2022/12/07 00:03:36;;;;;;;0.30;0.30;;;6.10;99.90;;;;;;5026966;28;20215;-81
2022/12/07 00:06:04;;;;;;;0.20;0.20;;;5.90;99.90;;;;;;5026928;28;20787;-83
2022/12/07 00:08:31;;;;;;;0.43;0.43;;;6.00;99.90;;;;;;5025988;28;20221;-81
2022/12/07 00:11:05;;;;;;;0.77;0.77;;;6.20;99.90;;;;;;5035580;28;20289;-83
2022/12/07 00:13:31;;;;;;;5.10;1.07;;;6.20;99.90;;;;;;5026333;28;20206;-82
2022/12/07 00:16:17;;;;;;;8.80;0.93;;;6.30;99.90;;;;;;5026882;28;20710;-82
2022/12/07 00:18:44;;;;;;;0.30;0.30;;;6.30;99.90;;;;;;5042659;28;20250;-84
2022/12/07 00:21:12;;;;;;;0.33;0.23;;;6.20;99.90;;;;;;5027166;28;20225;-83
2022/12/07 00:23:39;;;;;;;0.17;0.17;;;6.20;99.90;;;;;;5025145;28;20223;-82
2022/12/07 00:26:12;;;;;;;4.53;0.63;;;6.30;99.90;;;;;;5025516;28;20187;-83
2022/12/07 00:28:38;;;;;;;0.27;0.27;;;6.30;99.90;;;;;;5026314;28;20179;-83
2022/12/07 00:31:10;;;;;;;0.20;0.20;;;6.30;99.90;;;;;;5024099;28;20227;-83
2022/12/07 00:33:36;;;;;;;0.30;0.30;;;6.20;99.90;;;;;;5025388;28;20643;-82
2022/12/07 00:36:05;;;;;;;0.20;0.20;;;6.20;99.90;;;;;;5017568;28;20234;-84
2022/12/07 00:38:33;;;;;;;0.83;0.83;;;6.10;99.90;;;;;;5025751;28;20218;-84
2022/12/07 00:41:10;;;;;;;0.13;0.13;;;6.10;99.90;;;;;;5026424;28;20260;-82
2022/12/07 00:43:35;;;;;;;0.37;0.37;;;6.10;99.90;;;;;;5026108;28;20214;-83
2022/12/07 00:46:01;;;;;;;0.40;0.40;;;6.00;99.90;;;;;;5026152;28;20264;-84
2022/12/07 00:48:27;;;;;;;12.73;0.53;;;6.00;99.90;;;;;;5016774;28;20229;-82
2022/12/07 00:50:53;;;;;;;3.03;0.67;;;5.90;99.90;;;;;;5025381;28;20275;-82
2022/12/07 00:53:19;;;;;;;0.20;0.20;;;6.00;99.90;;;;;;5015310;28;20245;-83
2022/12/07 00:55:45;;;;;;;5.50;0.50;;;6.00;99.90;;;;;;5026652;28;20309;-83
2022/12/07 00:58:11;;;;;;;0.40;0.40;;;6.10;99.90;;;;;;5026259;28;20222;-82
2022/12/07 01:00:39;;;;;;;3.40;0.77;;;6.00;99.90;;;;;;5026454;28;20666;-83
2022/12/07 01:03:09;;;;;;;0.23;0.23;;;5.90;99.90;;;;;;5025859;28;20751;-82
2022/12/07 01:05:35;;;;;;;1.00;0.47;;;5.90;99.90;;;;;;5025230;28;20222;-82
2022/12/07 01:08:01;;;;;;;0.43;0.43;;;5.90;99.90;;;;;;5025383;28;20203;-83
2022/12/07 01:10:28;;;;;;;0.63;0.63;;;5.90;99.90;;;;;;5016651;28;20313;-81
2022/12/07 01:12:53;;;;;;;0.20;0.20;;;6.00;99.90;;;;;;5024399;28;20747;-82
2022/12/07 01:15:19;;;;;;;1.00;0.97;;;6.00;99.90;;;;;;5024238;28;20238;-82
2022/12/07 01:17:45;;;;;;;1.23;1.23;;;6.10;99.90;;;;;;5025944;28;20276;-82
2022/12/07 01:20:11;;;;;;;0.30;0.30;;;6.00;99.90;;;;;;5026178;28;20201;-82
2022/12/07 01:22:42;;;;;;;0.60;0.33;;;6.00;99.90;;;;;;5025135;28;21041;-82
2022/12/07 01:25:09;;;;;;;1.70;1.17;;;5.90;99.90;;;;;;5041239;28;20276;-83
2022/12/07 01:27:35;;;;;;;0.17;0.17;;;5.90;99.90;;;;;;5025729;28;21137;-82
2022/12/07 01:30:03;;;;;;;0.20;0.20;;;5.90;99.90;;;;;;5016448;28;20309;-82
2022/12/07 01:32:29;;;;;;;0.50;0.50;;;5.80;99.90;;;;;;5025702;28;20623;-82
2022/12/07 01:34:55;;;;;;;0.30;0.30;;;5.80;99.90;;;;;;5019240;28;20199;-81
2022/12/07 01:37:21;;;;;;;1.47;1.37;;;5.80;99.90;;;;;;5024615;28;20254;-84
2022/12/07 01:39:50;;;;;;;0.60;0.37;;;5.70;99.90;;;;;;5025619;28;20296;-84
2022/12/07 01:42:17;;;;;;;0.37;0.37;;;5.60;99.90;;;;;;5024327;28;20223;-84
2022/12/07 01:45:31;;;;;;;3.93;0.60;;;5.60;99.90;;;;;;5025576;28;20222;-83
2022/12/07 01:47:58;;;;;;;0.20;0.20;;;5.50;99.90;;;;;;5014950;28;20301;-83
2022/12/07 01:50:27;;;;;;;1.43;1.33;;;5.40;99.90;;;;;;5025203;28;20256;-84
2022/12/07 01:52:56;;;;;;;0.30;0.30;;;5.40;99.90;;;;;;5033640;28;20289;-81
2022/12/07 01:55:22;;;;;;;0.73;0.73;;;5.40;99.90;;;;;;5025354;28;20310;-84
2022/12/07 01:57:51;;;;;;;0.33;0.33;;;5.30;99.90;;;;;;5025248;28;20310;-83
2022/12/07 02:00:18;;;;;;;0.20;0.20;;;5.30;99.90;;;;;;5024858;28;20225;-82
2022/12/07 02:03:09;;;;;;;1.10;1.03;;;5.30;99.90;;;;;;5024746;28;20237;-82
2022/12/07 02:05:36;;;;;;;0.70;0.70;;;5.30;99.90;;;;;;5024963;28;20214;-84
2022/12/07 02:08:03;;;;;;;0.30;0.30;;;5.40;99.90;;;;;;5025169;28;20286;-81
2022/12/07 02:10:31;;;;;;;0.30;0.30;;;5.50;99.90;;;;;;5025012;28;20699;-84
2022/12/07 02:13:05;;;;;;;0.20;0.20;;;5.50;99.90;;;;;;5025390;28;20230;-82
2022/12/07 02:15:48;;;;;;;1.03;1.03;;;5.90;99.90;;;;;;5025522;28;20223;-83
2022/12/07 02:18:39;;;;;;;0.20;0.20;;;6.00;99.90;;;;;;5024985;28;20985;-82
2022/12/07 02:21:23;;;;;;;0.50;0.23;;;6.00;99.90;;;;;;5024528;28;20329;-81
2022/12/07 02:24:14;;;;;;;0.20;0.20;;;6.00;99.90;;;;;;5024033;28;20233;-81
2022/12/07 02:26:51;;;;;;;0.20;0.20;;;6.30;99.90;;;;;;5024111;28;20222;-81
2022/12/07 02:29:24;;;;;;;0.73;0.73;;;6.50;99.90;;;;;;5024051;28;20200;-82
2022/12/07 02:31:59;;;;;;;0.60;0.60;;;6.30;99.90;;;;;;5024653;28;20543;-81
2022/12/07 02:34:41;;;;;;;0.30;0.30;;;6.20;99.90;;;;;;5024136;28;20213;-81
2022/12/07 02:37:37;;;;;;;0.20;0.20;;;6.20;99.90;;;;;;5024125;28;20272;-82
2022/12/07 02:40:22;;;;;;;0.67;0.67;;;6.10;99.90;;;;;;5022632;28;20219;-82
2022/12/07 02:42:55;;;;;;;2.37;1.30;;;6.00;99.90;;;;;;5024573;28;20218;-83
2022/12/07 02:45:24;;;;;;;0.30;0.30;;;5.90;99.90;;;;;;5016414;28;21020;-83
2022/12/07 02:47:54;;;;;;;0.23;0.23;;;5.90;99.90;;;;;;5024247;28;20358;-83
2022/12/07 02:50:21;;;;;;;0.30;0.30;;;5.80;99.90;;;;;;5023425;28;20187;-83
2022/12/07 02:52:47;;;;;;;0.30;0.30;;;5.90;99.90;;;;;;5025019;28;20242;-80
2022/12/07 02:55:16;;;;;;;0.20;0.20;;;5.80;99.90;;;;;;5023800;28;20974;-81
2022/12/07 02:58:04;;;;;;;0.23;0.23;;;5.80;99.90;;;;;;5023908;28;20218;-81
2022/12/07 03:00:33;;;;;;;3.00;0.33;;;5.80;99.90;;;;;;5022618;28;20215;-83
2022/12/07 03:03:05;;;;;;;0.57;0.57;;;5.70;99.90;;;;;;5023751;28;20229;-82
2022/12/07 03:05:49;;;;;;;0.10;0.10;;;5.80;99.90;;;;;;5024313;28;20326;-82
2022/12/07 03:08:41;;;;;;;0.20;0.20;;;5.80;99.90;;;;;;5024120;28;20191;-83
2022/12/07 03:11:10;;;;;;;0.20;0.20;;;5.80;99.90;;;;;;5024453;28;20229;-84
2022/12/07 03:13:50;;;;;;;0.20;0.20;;;5.70;99.90;;;;;;5024600;28;20178;-84
2022/12/07 03:16:32;;;;;;;0.30;0.30;;;5.80;99.90;;;;;;5024036;28;20304;-83
2022/12/07 03:19:07;;;;;;;0.30;0.30;;;5.80;99.90;;;;;;5027141;28;20222;-84
2022/12/07 03:21:44;;;;;;;0.10;0.10;;;5.90;99.90;;;;;;5027514;28;20696;-84
2022/12/07 03:24:15;;;;;;;0.37;0.37;;;6.00;99.90;;;;;;5027810;28;20222;-83
2022/12/07 03:27:05;;;;;;;0.10;0.10;;;6.10;99.90;;;;;;5027682;28;20716;-85
2022/12/07 03:29:49;;;;;;;0.30;0.30;;;6.20;99.90;;;;;;5027395;28;20214;-83
2022/12/07 03:32:29;;;;;;;0.20;0.20;;;6.20;99.90;;;;;;5026508;28;20218;-81
2022/12/07 03:35:16;;;;;;;0.30;0.30;;;6.10;99.90;;;;;;5028342;28;20218;-83
2022/12/07 03:38:00;;;;;;;0.30;0.30;;;6.00;99.90;;;;;;5006775;28;20215;-83
2022/12/07 03:40:52;;;;;;;0.67;0.50;;;6.00;99.90;;;;;;5007748;28;20243;-83
2022/12/07 03:43:19;;;;;;;0.30;0.30;;;5.90;99.90;;;;;;5006835;28;20215;-83
2022/12/07 03:46:00;;;;;;;0.50;0.50;;;5.80;99.90;;;;;;5006715;28;20227;-82
2022/12/07 03:48:32;;;;;;;0.50;0.50;;;5.80;99.90;;;;;;5022355;28;20219;-83
2022/12/07 03:51:18;;;;;;;0.20;0.20;;;5.80;99.90;;;;;;5006512;28;20234;-83
2022/12/07 03:53:53;;;;;;;0.30;0.30;;;5.70;99.90;;;;;;5007400;28;20239;-81
2022/12/07 03:56:21;;;;;;;0.20;0.20;;;5.70;99.90;;;;;;5013853;28;20250;-82
2022/12/07 03:58:48;;;;;;;0.20;0.20;;;5.70;99.90;;;;;;5015703;28;20191;-83
2022/12/07 04:01:14;;;;;;;0.30;0.30;;;5.60;99.90;;;;;;5007518;28;20310;-82
2022/12/07 04:03:39;;;;;;;0.30;0.30;;;5.60;99.90;;;;;;5006585;28;20309;-83
2022/12/07 04:06:05;;;;;;;0.20;0.20;;;5.60;99.90;;;;;;4997592;28;21011;-82
2022/12/07 04:08:31;;;;;;;0.30;0.30;;;5.50;99.90;;;;;;4982234;28;20223;-82
2022/12/07 04:10:57;;;;;;;2.10;2.00;;;5.50;99.90;;;;;;5006611;28;20199;-83
2022/12/07 04:13:23;;;;;;;0.60;0.60;;;5.40;99.90;;;;;;5006716;28;20211;-83
2022/12/07 04:15:48;;;;;;;0.30;0.30;;;5.40;99.90;;;;;;4982866;28;20235;-84
2022/12/07 04:18:14;;;;;;;0.30;0.30;;;5.50;99.90;;;;;;4997104;28;20237;-81
2022/12/07 04:20:40;;;;;;;6.13;0.87;;;5.60;99.90;;;;;;5006738;28;20222;-83
2022/12/07 04:23:05;;;;;;;0.47;0.47;;;5.70;99.90;;;;;;5006711;28;20578;-81
2022/12/07 04:25:31;;;;;;;0.20;0.20;;;5.70;99.90;;;;;;5006844;28;21470;-84
2022/12/07 04:27:57;;;;;;;1.07;1.07;;;5.60;99.90;;;;;;5007427;28;20226;-82
2022/12/07 04:30:22;;;;;;;0.73;0.73;;;5.50;99.90;;;;;;5005424;28;20756;-81
2022/12/07 04:32:48;;;;;;;0.30;0.30;;;5.60;99.90;;;;;;5005904;28;20280;-82
2022/12/07 04:35:14;;;;;;;0.30;0.30;;;5.60;99.90;;;;;;4988808;28;20636;-83
2022/12/07 04:37:39;;;;;;;0.30;0.30;;;5.60;99.90;;;;;;5007256;28;20206;-84
2022/12/07 04:40:10;;;;;;;0.37;0.20;;;5.50;99.90;;;;;;5013000;28;20246;-83
2022/12/07 04:42:37;;;;;;;3.50;0.93;;;5.50;99.90;;;;;;5036987;28;20680;-83
2022/12/07 04:45:03;;;;;;;2.03;1.10;;;5.50;99.90;;;;;;5003814;28;20229;-81
2022/12/07 04:47:29;;;;;;;0.80;0.80;;;5.60;99.90;;;;;;5003408;28;20227;-83
2022/12/07 04:49:54;;;;;;;0.23;0.23;;;5.60;99.90;;;;;;4988527;28;20204;-83
2022/12/07 04:52:20;;;;;;;0.20;0.20;;;5.60;99.90;;;;;;4984717;28;20279;-83
2022/12/07 04:54:46;;;;;;;6.00;1.87;;;5.60;99.90;;;;;;5013947;28;20581;-84
2022/12/07 04:57:11;;;;;;;0.93;0.93;;;5.80;99.90;;;;;;4979788;28;20231;-82
2022/12/07 04:59:37;;;;;;;0.30;0.30;;;5.90;99.90;;;;;;4981268;28;20235;-83
2022/12/07 05:02:03;;;;;;;0.30;0.30;;;5.80;99.90;;;;;;4998456;28;20195;-82
2022/12/07 05:04:28;;;;;;;0.20;0.20;;;5.80;99.90;;;;;;4989518;28;20223;-82
2022/12/07 05:06:54;;;;;;;3.20;1.00;;;5.80;99.90;;;;;;4981062;28;20223;-82
2022/12/07 05:09:20;;;;;;;4.07;0.57;;;5.90;99.90;;;;;;5006335;28;20293;-83
2022/12/07 05:11:46;;;;;;;0.43;0.43;;;5.90;99.90;;;;;;5006520;28;20716;-83
2022/12/07 05:14:20;;;;;;;0.53;0.53;;;5.90;99.90;;;;;;4996503;28;20192;-83
2022/12/07 05:16:48;;;;;;;2.57;0.87;;;5.90;99.90;;;;;;5007002;28;20208;-82
2022/12/07 05:19:14;;;;;;;0.30;0.30;;;5.70;99.90;;;;;;5021442;28;20226;-81
2022/12/07 05:21:40;;;;;;;0.20;0.20;;;5.60;99.90;;;;;;5006047;28;20219;-82
2022/12/07 05:24:07;;;;;;;33.77;1.30;;;5.50;99.90;;;;;;5005299;28;20689;-83
2022/12/07 05:26:34;;;;;;;0.33;0.33;;;5.30;99.90;;;;;;5006003;28;20223;-81
2022/12/07 05:28:59;;;;;;;2.67;0.83;;;5.30;99.90;;;;;;5005952;28;20206;-85
2022/12/07 05:31:26;;;;;;;1.33;0.57;;;5.20;99.90;;;;;;4986527;28;20220;-80
2022/12/07 05:33:52;;;;;;;0.20;0.20;;;5.20;99.90;;;;;;5004966;28;20235;-81
2022/12/07 05:36:18;;;;;;;0.20;0.20;;;5.30;99.90;;;;;;4994853;28;20383;-82
2022/12/07 05:38:44;;;;;;;0.30;0.30;;;5.50;99.90;;;;;;5012055;28;20322;-84
2022/12/07 05:42:11;;;;;;;1.90;0.70;;;6.00;99.90;;;;;;5003979;28;20192;-83
2022/12/07 05:43:59;;;;;;;0.20;0.20;;;6.10;99.90;;;;;;5005464;28;20190;-83
2022/12/07 05:46:25;;;;;;;0.40;0.40;;;6.10;99.90;;;;;;5004245;28;20227;-83
2022/12/07 05:48:51;;;;;;;0.40;0.40;;;6.00;99.90;;;;;;5005210;28;20222;-84
2022/12/07 05:51:17;;;;;;;1.90;1.80;;;5.90;99.90;;;;;;5004682;28;20573;-84
2022/12/07 05:53:44;;;;;;;11.03;0.93;;;5.70;99.90;;;;;;5002574;28;20266;-84
2022/12/07 05:56:10;;;;;;;0.30;0.30;;;5.70;99.90;;;;;;5004204;28;20303;-84
2022/12/07 06:01:20;;;;;;;6.70;1.23;;;5.60;99.90;;;;;;5009616;28;20991;-86
2022/12/07 06:03:45;;;;;;;0.20;0.20;;;5.40;99.90;;;;;;5017789;28;20207;-86
2022/12/07 06:06:11;;;;;;;0.30;0.30;;;5.30;99.90;;;;;;5015415;28;20233;-83
2022/12/07 06:08:37;;;;;;;0.20;0.20;;;5.30;99.90;;;;;;5031595;28;20214;-86
2022/12/07 06:13:47;;;;;;;0.20;0.20;;;5.40;99.90;;;;;;5024889;28;20246;-84
2022/12/07 06:16:12;;;;;;;0.27;0.27;;;5.50;99.90;;;;;;5023466;28;20230;-82
2022/12/07 06:18:38;;;;;;;0.30;0.30;;;5.60;99.90;;;;;;5031050;28;20273;-84
2022/12/07 06:21:04;;;;;;;0.20;0.20;;;5.90;99.90;;;;;;5024200;28;20218;-82
2022/12/07 06:23:29;;;;;;;0.30;0.30;;;5.90;99.90;;;;;;5025266;28;20269;-84
2022/12/07 06:25:55;;;;;;;0.13;0.13;;;5.90;99.90;;;;;;5025405;28;20205;-85
2022/12/07 06:28:21;;;;;;;14.00;1.47;;;6.20;99.90;;;;;;5014469;28;20214;-83
2022/12/07 06:30:46;;;;;;;0.93;0.50;;;6.30;99.90;;;;;;5014406;28;20222;-82
2022/12/07 06:33:12;;;;;;;0.20;0.20;;;6.30;99.90;;;;;;5024565;28;20305;-84
2022/12/07 06:35:38;;;;;;;0.20;0.20;;;6.00;99.90;;;;;;5040790;28;20611;-88
2022/12/07 06:38:03;;;;;;;0.30;0.30;;;5.90;99.90;;;;;;5024066;28;20198;-84
2022/12/07 06:40:29;;;;;;;0.30;0.30;;;5.80;99.90;;;;;;5030685;28;20218;-85
2022/12/07 06:42:55;;;;;;;0.30;0.30;;;5.80;99.90;;;;;;5006773;28;20684;-84
2022/12/07 06:45:20;;;;;;;0.30;0.30;;;5.70;99.90;;;;;;5023304;28;20225;-85
2022/12/07 06:47:46;;;;;;;0.30;0.30;;;5.70;99.90;;;;;;5025195;28;20223;-84
2022/12/07 06:50:12;;;;;;;0.20;0.20;;;5.60;99.90;;;;;;5024594;28;20194;-83
2022/12/07 06:52:38;;;;;;;0.30;0.30;;;5.50;99.90;;;;;;5039273;28;20715;-84
2022/12/07 06:55:04;;;;;;;0.30;0.30;;;5.50;99.90;;;;;;5028926;28;20234;-84
2022/12/07 06:57:29;;;;;;;0.10;0.10;;;5.40;99.90;;;;;;5011890;28;20222;-87
2022/12/07 06:59:55;;;;;;;0.30;0.30;;;5.40;99.90;;;;;;5027986;28;20218;-87
2022/12/07 07:02:21;;;;;;;0.20;0.20;;;5.50;99.90;;;;;;5028259;28;20194;-84
2022/12/07 07:04:46;;;;;;;4.83;1.60;;;5.50;99.90;;;;;;5028004;28;20304;-85
2022/12/07 07:07:12;;;;;;;0.40;0.40;;;5.60;99.90;;;;;;5035623;28;20229;-86
2022/12/07 07:09:38;;;;;;;0.20;0.20;;;5.70;99.90;;;;;;5001741;28;20218;-85
2022/12/07 07:12:04;;;;;;;0.30;0.30;;;5.70;99.90;;;;;;5019266;28;20234;-84
2022/12/07 07:14:29;;;;;;;0.60;0.60;;;5.90;99.90;;;;;;5028274;28;20283;-87
2022/12/07 07:16:55;;;;;;;0.40;0.40;;;5.90;99.90;;;;;;5035998;28;20222;-86
2022/12/07 07:19:21;;;;;;;0.37;0.37;;;6.00;99.90;;;;;;5027641;28;20229;-84
2022/12/07 07:21:46;;;;;;;0.30;0.30;;;6.00;99.90;;;;;;5043370;28;20290;-85
2022/12/07 07:24:12;;;;;;;0.33;0.33;;;5.70;99.90;;;;;;5028243;28;20230;-81
2022/12/07 07:26:38;;;;;;;0.40;0.40;;;5.60;99.90;;;;;;5035311;28;20801;-81
2022/12/07 07:29:04;;;;;;;0.57;0.57;;;5.50;99.90;;;;;;5015810;28;20194;-82
2022/12/07 07:31:29;;;;;;;0.30;0.30;;;5.40;99.90;;;;;;5035440;28;20723;-86
2022/12/07 07:33:55;;;;;;;0.30;0.30;;;5.40;99.90;;;;;;5034041;28;20878;-84
2022/12/07 07:36:21;;;;;;;0.30;0.30;;;5.30;99.90;;;;;;5027671;28;20261;-87
2022/12/07 07:38:47;;;;;;;0.20;0.20;;;5.30;99.90;;;;;;5018584;28;20767;-85
2022/12/07 07:41:12;;;;;;;0.40;0.40;;;5.20;99.90;;;;;;5001314;28;20557;-84
2022/12/07 07:43:38;;;;;;;0.20;0.20;;;5.20;99.90;;;;;;5043389;28;20217;-86
2022/12/07 07:46:04;;;;;;;0.40;0.40;;;5.20;99.90;;;;;;5026116;28;20230;-84
2022/12/07 07:48:30;;;;;;;0.30;0.30;;;5.20;99.90;;;;;;5009902;28;20245;-85
2022/12/07 07:50:55;;;;;;;0.27;0.27;;;5.30;99.90;;;;;;5034602;28;20716;-84
2022/12/07 07:53:21;;;;;;;0.23;0.23;;;5.30;99.90;;;;;;5016496;28;20246;-84
2022/12/07 07:55:54;;;;;;;0.30;0.30;;;5.30;99.90;;;;;;5042446;28;21189;-84
2022/12/07 07:58:20;;;;;;;1.90;1.83;;;5.50;99.90;;;;;;5025563;28;20305;-84
2022/12/07 08:00:46;;;;;;;0.20;0.20;;;5.50;99.90;;;;;;5025515;28;20218;-84
2022/12/07 08:03:12;;;;;;;0.77;0.77;;;5.60;99.90;;;;;;5035558;28;20217;-85
2022/12/07 08:05:38;;;;;;;0.40;0.40;;;5.60;99.90;;;;;;5035016;28;20301;-85
2022/12/07 08:08:04;;;;;;;0.30;0.30;;;5.70;99.90;;;;;;5027537;28;20963;-84
2022/12/07 08:10:31;;;;;;;0.40;0.40;;;5.60;99.90;;;;;;5027215;28;20217;-85
2022/12/07 08:13:13;;;;;;;0.60;0.60;;;5.60;99.90;;;;;;5026925;28;20254;-85
2022/12/07 08:15:47;;;;;;;0.20;0.20;;;5.50;99.90;;;;;;5017241;28;20237;-86
2022/12/07 08:18:14;;;;;;;0.30;0.30;;;5.50;99.90;;;;;;5025637;28;20222;-84
2022/12/07 08:20:40;;;;;;;0.47;0.47;;;5.50;99.90;;;;;;5018112;28;20625;-85
2022/12/07 08:23:07;;;;;;;0.20;0.20;;;5.60;99.90;;;;;;5027089;28;20686;-82
2022/12/07 08:25:33;;;;;;;0.30;0.30;;;5.60;99.90;;;;;;5026380;28;20181;-83
2022/12/07 08:28:00;;;;;;;1.20;1.20;;;5.80;99.90;;;;;;5027605;28;20225;-85
2022/12/07 08:30:26;;;;;;;0.67;0.67;;;5.80;99.90;;;;;;5041644;28;20261;-84
2022/12/07 08:32:52;;;;;;;0.30;0.30;;;5.90;99.90;;;;;;5024824;28;20229;-83
2022/12/07 08:35:17;;;;;;;0.20;0.20;;;5.90;99.90;;;;;;5025083;28;20195;-85
2022/12/07 08:37:43;;;;;;;0.27;0.27;;;5.80;99.90;;;;;;5034145;28;20224;-82
2022/12/07 08:40:14;;;;;;;0.40;0.40;;;5.70;99.90;;;;;;5047803;28;20206;-82
2022/12/07 08:42:48;;;;;;;0.23;0.23;;;5.60;99.90;;;;;;5037918;28;20214;-83
2022/12/07 08:45:15;;;;;;;0.40;0.40;;;5.60;99.90;;;;;;5026204;28;20215;-84
2022/12/07 08:48:10;;;;;;;1.07;1.07;;;5.60;99.90;;;;;;5026413;28;20560;-82
2022/12/07 08:50:37;;;;;;;0.30;0.30;;;5.70;99.90;;;;;;5023211;28;20221;-83
2022/12/07 08:53:05;;;;;;;0.30;0.30;;;5.70;99.90;;;;;;5023751;28;20258;-83
2022/12/07 08:55:31;;;;;;;0.27;0.27;;;5.80;99.90;;;;;;5032357;28;20736;-84
2022/12/07 08:58:02;;;;;;;0.30;0.30;;;5.90;99.90;;;;;;5025396;28;20301;-83
2022/12/07 09:00:27;;;;;;;0.40;0.40;;;6.00;99.90;;;;;;5023336;28;20688;-81
2022/12/07 09:02:54;;;;;;;9.33;0.60;;;6.10;99.90;;;;;;5015041;28;20229;-84
2022/12/07 09:05:20;;;;;;;0.33;0.33;;;6.20;99.90;;;;;;5024193;28;20802;-84
2022/12/07 09:07:51;;;;;;;0.30;0.30;;;6.30;99.90;;;;;;5041511;28;20675;-85
2022/12/07 09:10:17;;;;;;;0.60;0.60;;;6.20;99.90;;;;;;5045236;28;20256;-84
2022/12/07 09:12:43;;;;;;;1.07;0.70;;;6.00;99.90;;;;;;5028830;28;20757;-85
2022/12/07 09:15:09;;;;;;;0.20;0.20;;;5.80;99.90;;;;;;5045212;28;20313;-82
2022/12/07 09:17:35;;;;;;;0.20;0.20;;;5.80;99.90;;;;;;5028839;28;20221;-83
2022/12/07 09:20:03;;;;;;;0.20;0.20;;;5.90;99.90;;;;;;5024933;28;20552;-82
2022/12/07 09:22:30;;;;;;;0.30;0.30;;;5.90;99.90;;;;;;5039258;28;20224;-84
2022/12/07 09:24:57;;;;;;;0.27;0.27;;;5.80;99.90;;;;;;5023707;28;20306;-83
2022/12/07 09:27:23;;;;;;;0.53;0.53;;;5.70;99.90;;;;;;5022592;28;20241;-82
2022/12/07 09:29:49;;;;;;;0.50;0.50;;;5.70;99.90;;;;;;5021989;28;20233;-82
2022/12/07 09:32:15;;;;;;;0.20;0.20;;;5.60;99.90;;;;;;5014731;28;20212;-84
2022/12/07 09:34:40;;;;;;;0.93;0.93;;;5.60;99.90;;;;;;5029080;28;20629;-83
2022/12/07 09:37:06;;;;;;;0.33;0.33;;;5.80;99.90;;;;;;5022357;28;20238;-81
2022/12/07 09:39:32;;;;;;;1.33;0.60;;;5.90;99.90;;;;;;5025408;28;20258;-83
2022/12/07 09:42:02;;;;;;;0.30;0.30;;;6.00;99.90;;;;;;5022954;28;20229;-83
2022/12/07 09:44:28;;;;;;;0.30;0.30;;;6.20;99.90;;;;;;5022846;28;20280;-81
2022/12/07 09:46:56;;;;;;;0.40;0.40;;;6.30;99.90;;;;;;5022796;28;20257;-84
2022/12/07 09:49:24;;;;;;;0.10;0.10;;;6.30;99.90;;;;;;5020946;28;20210;-83
2022/12/07 09:52:25;;;;;;;0.20;0.20;;;6.30;99.90;;;;;;5030821;28;20314;-92
2022/12/07 09:54:51;;;;;;;0.20;0.20;;;6.30;99.90;;;;;;5026873;28;20237;-93
2022/12/07 09:57:19;;;;;;;0.23;0.23;;;6.30;99.90;;;;;;5041426;28;20345;-90
2022/12/07 09:59:45;;;;;;;0.10;0.10;;;6.30;99.90;;;;;;5025453;28;20218;-92
2022/12/07 10:02:35;;;;;;;1.17;0.50;;;6.50;99.90;;;;;;5022955;28;20769;-90
2022/12/07 10:05:03;;;;;;;0.20;0.20;;;6.40;99.90;;;;;;5019968;28;20288;-91
2022/12/07 10:07:29;;;;;;;0.20;0.20;;;6.00;99.90;;;;;;5041238;28;20321;-92
2022/12/07 10:09:55;;;;;;;0.40;0.40;;;5.80;99.90;;;;;;5025807;28;20244;-88
2022/12/07 10:12:21;;;;;;;0.70;0.70;;;5.70;99.90;;;;;;5023819;28;20317;-87
2022/12/07 10:15:02;;;;;;;0.30;0.30;;;5.80;99.90;;;;;;5022997;28;20804;-88
2022/12/07 10:17:47;;;;;;;0.20;0.20;;;5.90;99.90;;;;;;5025089;28;20585;-88
2022/12/07 10:20:27;;;;;;;0.20;0.20;;;6.00;99.90;;;;;;5023115;28;20471;-88
2022/12/07 10:23:05;;;;;;;0.30;0.30;;;6.10;99.90;;;;;;5021682;28;20181;-87
2022/12/07 10:25:38;;;;;;;0.20;0.20;;;6.20;99.90;;;;;;5037568;28;20218;-89
2022/12/07 10:28:13;;;;;;;0.20;0.20;;;6.30;99.90;;;;;;5020137;28;20238;-89
2022/12/07 10:31:01;;;;;;;0.20;0.20;;;6.40;99.90;;;;;;5021710;28;20220;-89
2022/12/07 10:33:55;;;;;;;0.20;0.20;;;6.60;99.90;;;;;;5022319;28;20268;-90
2022/12/07 10:36:37;;;;;;;0.20;0.20;;;6.70;99.90;;;;;;5022637;28;20273;-90
2022/12/07 10:39:17;;;;;;;2.13;0.43;;;6.90;99.90;;;;;;5021370;28;20214;-90
2022/12/07 10:41:54;;;;;;;0.37;0.37;;;6.70;99.90;;;;;;5029118;28;20252;-90
2022/12/07 10:44:22;;;;;;;0.20;0.20;;;6.70;99.90;;;;;;5038384;28;20779;-88
2022/12/07 10:47:00;;;;;;;0.20;0.20;;;6.70;99.90;;;;;;5023368;28;20243;-88
2022/12/07 10:49:41;;;;;;;0.93;0.40;;;6.80;99.90;;;;;;5037481;28;20238;-90
2022/12/07 10:52:21;;;;;;;0.20;0.20;;;6.90;99.90;;;;;;5025278;28;20219;-91
2022/12/07 10:55:06;;;;;;;3.20;0.40;;;7.00;99.90;;;;;;5027822;28;20277;-91
2022/12/07 10:57:41;;;;;;;0.30;0.30;;;7.00;99.90;;;;;;5027280;28;20245;-90
2022/12/07 11:00:24;;;;;;;0.20;0.20;;;7.20;99.90;;;;;;5026266;28;20295;-90
2022/12/07 11:02:50;;;;;;;0.50;0.50;;;7.30;99.90;;;;;;5041065;28;20230;-91
2022/12/07 11:05:34;;;;;;;0.70;0.70;;;7.40;99.90;;;;;;5026340;28;20195;-90
2022/12/07 11:08:34;;;;;;;0.60;0.60;;;7.60;99.90;;;;;;5025893;28;20209;-91
2022/12/07 11:11:18;;;;;;;0.30;0.30;;;7.60;99.90;;;;;;5026485;28;20268;-89
2022/12/07 11:14:03;;;;;;;0.60;0.60;;;7.50;99.90;;;;;;5026506;28;20205;-91
2022/12/07 11:16:41;;;;;;;0.20;0.20;;;7.30;99.90;;;;;;5025564;28;20731;-90
2022/12/07 11:19:28;;;;;;;0.20;0.20;;;7.10;99.90;;;;;;5024625;28;20238;-88
2022/12/07 11:22:13;;;;;;;1.30;0.37;;;6.60;99.90;;;;;;5025982;28;20309;-90
2022/12/07 11:24:41;;;;;;;0.20;0.20;;;5.90;99.90;;;;;;5024522;28;20309;-87
2022/12/07 11:27:16;;;;;;;0.60;0.60;;;5.50;99.90;;;;;;5017105;28;20230;-86
2022/12/07 11:30:00;;;;;;;0.43;0.20;;;5.40;99.90;;;;;;5025991;28;20260;-88
2022/12/07 11:33:04;;;;;;;0.40;0.40;;;5.40;99.90;;;;;;5017337;28;20210;-89
2022/12/07 11:35:42;;;;;;;0.20;0.20;;;5.60;99.90;;;;;;5024924;28;20242;-89
2022/12/07 11:38:15;;;;;;;0.20;0.20;;;5.70;99.90;;;;;;5033841;28;20198;-90
2022/12/07 11:40:48;;;;;;;0.30;0.30;;;5.90;99.90;;;;;;5028971;28;20187;-89
2022/12/07 11:43:25;;;;;;;0.43;0.43;;;6.00;99.90;;;;;;5028386;28;20797;-90
2022/12/07 11:46:14;;;;;;;0.20;0.20;;;6.10;99.90;;;;;;5028613;28;20226;-90
2022/12/07 11:48:46;;;;;;;0.30;0.30;;;6.10;99.90;;;;;;5044486;28;20925;-91
2022/12/07 11:51:12;;;;;;;0.30;0.30;;;6.20;99.90;;;;;;5028127;28;20257;-90
2022/12/07 11:53:52;;;;;;;0.10;0.10;;;6.20;99.90;;;;;;5028369;28;20984;-91
2022/12/07 11:56:21;;;;;;;0.30;0.30;;;6.30;99.90;;;;;;5028275;28;20516;-90
2022/12/07 11:58:47;;;;;;;0.20;0.20;;;6.30;99.90;;;;;;5028598;28;20191;-90
2022/12/07 12:01:13;;;;;;;0.30;0.30;;;6.30;99.90;;;;;;5028608;28;20225;-91
2022/12/07 12:03:45;;;;;;;0.20;0.20;;;6.30;99.90;;;;;;5028299;28;20319;-93
2022/12/07 12:06:11;;;;;;;0.10;0.10;;;6.30;99.90;;;;;;5045725;28;20268;-94
2022/12/07 12:08:43;;;;;;;0.10;0.10;;;6.20;99.90;;;;;;5004018;28;20632;-91
2022/12/07 12:11:23;;;;;;;0.10;0.10;;;6.20;99.90;;;;;;5028705;28;20551;-91
2022/12/07 12:13:56;;;;;;;0.83;0.83;;;6.10;99.90;;;;;;5019238;28;20824;-91
2022/12/07 12:16:34;;;;;;;0.50;0.50;;;6.10;99.90;;;;;;5028108;28;20238;-90
2022/12/07 12:19:19;;;;;;;0.20;0.20;;;6.00;99.90;;;;;;5020184;28;20218;-90
2022/12/07 12:21:48;;;;;;;2.33;1.13;;;6.00;99.90;;;;;;5029603;28;20246;-90
2022/12/07 12:24:23;;;;;;;0.37;0.37;;;6.10;99.90;;;;;;5028589;28;20267;-91
2022/12/07 12:27:00;;;;;;;6.60;0.53;;;6.20;99.90;;;;;;5029365;28;20228;-91
2022/12/07 12:29:38;;;;;;;0.30;0.30;;;6.30;99.90;;;;;;5024549;28;20222;-91
2022/12/07 12:32:10;;;;;;;0.30;0.30;;;6.30;99.90;;;;;;5029235;28;20237;-91
2022/12/07 12:35:00;;;;;;;0.20;0.20;;;6.40;99.90;;;;;;5028501;28;20273;-91
2022/12/07 12:37:35;;;;;;;0.23;0.23;;;6.40;99.90;;;;;;5027816;28;20226;-91
2022/12/07 12:40:16;;;;;;;0.40;0.40;;;6.40;99.90;;;;;;5028556;28;20272;-91
2022/12/07 12:42:47;;;;;;;0.40;0.40;;;6.50;99.90;;;;;;5027432;28;20221;-92
2022/12/07 12:45:33;;;;;;;0.50;0.50;;;6.50;99.90;;;;;;5028754;28;20317;-91
2022/12/07 12:48:03;;;;;;;0.70;0.70;;;6.50;99.90;;;;;;5043863;28;20253;-91
2022/12/07 12:50:34;;;;;;;3.20;0.87;;;6.50;99.90;;;;;;5026596;28;20226;-91
2022/12/07 12:53:32;;;;;;;1.27;0.90;;;6.50;99.90;;;;;;5026865;28;20224;-91
2022/12/07 12:56:17;;;;;;;1.50;0.40;;;6.50;99.90;;;;;;5005562;28;20239;-92
2022/12/07 12:58:45;;;;;;;0.67;0.67;;;6.50;99.90;;;;;;5008049;28;20219;-89
2022/12/07 13:01:40;;;;;;;0.43;0.43;;;6.40;99.90;;;;;;5008868;28;20313;-89
2022/12/07 13:04:25;;;;;;;0.43;0.43;;;6.40;99.90;;;;;;5017946;28;20258;-90
2022/12/07 13:06:52;;;;;;;0.20;0.20;;;6.40;99.90;;;;;;5024568;28;20230;-90
2022/12/07 13:09:28;;;;;;;0.20;0.20;;;6.50;99.90;;;;;;5009538;28;20689;-91
2022/12/07 13:12:21;;;;;;;1.27;1.10;;;6.40;99.90;;;;;;5007639;28;20246;-89
2022/12/07 13:14:56;;;;;;;0.50;0.40;;;6.30;99.90;;;;;;5003552;28;20231;-88
2022/12/07 13:17:31;;;;;;;0.20;0.20;;;6.20;99.90;;;;;;5008107;28;20215;-88
2022/12/07 13:19:59;;;;;;;1.10;1.10;;;5.90;99.90;;;;;;5015376;28;20194;-87
2022/12/07 13:22:30;;;;;;;0.47;0.47;;;5.90;99.90;;;;;;4996876;28;20226;-90
2022/12/07 13:24:57;;;;;;;0.20;0.20;;;5.80;99.90;;;;;;5001285;28;20216;-89